M/y Paradigm — V7TE6 — position and weather

sailwx.info

Track history (hours):
 
Tides and Currents Weather Stations Pressure Air Temp Water Temp Dewpoint Dewpoint Depression Visibility Wind Speed Wind Dir Waves Ship Positions

M/y Paradigm

Last reported at 2016-Jun-11 16:32 UTC. Time now 2016-Jun-25 01:49 UTC.
Position N 26°03' W 080°04'.
Warning: this ship's position is 13 days out of date.

Length 35 m.

Type: Pleasure craft. MMSI: 538070694.

Date/timePositionNaut miles runAvg speedWind from/ knotsBaromVisibWave heightAir tempDewpointWater temp
2016-Jun-11 16:32N 26°03' W 080°04'10 9.6
2016-Jun-11 15:31N 26°12' W 080°04'7 6.6
2016-Jun-11 14:30N 26°19' W 080°05'1 1.5
2016-Jun-11 13:33N 26°21' W 080°05'0 0.0
2016-Jun-11 12:33N 26°21' W 080°05'0 0.0
2016-Jun-11 11:33N 26°21' W 080°05'0 0.0
2016-Jun-11 10:33N 26°21' W 080°05'0 0.0
2016-Jun-11 09:33N 26°21' W 080°05'0 0.0
2016-Jun-11 08:33N 26°21' W 080°05'0 0.0
2016-Jun-11 07:33N 26°21' W 080°05'0 0.0
2016-Jun-11 06:24N 26°21' W 080°05'0 0.0
2016-Jun-11 05:27N 26°21' W 080°05'0 0.0
2016-Jun-11 04:27N 26°21' W 080°05'0 0.0
2016-Jun-11 03:27N 26°21' W 080°05'0 0.0
2016-Jun-11 02:30N 26°21' W 080°05'0 0.0
2016-Jun-11 01:30N 26°21' W 080°05'0 0.0
2016-Jun-11 00:30N 26°21' W 080°05'0 0.0
2016-Jun-10 23:33N 26°21' W 080°05'0 0.0
2016-Jun-10 22:33N 26°21' W 080°05'0 0.0
2016-Jun-10 21:33N 26°21' W 080°05'0 0.0
2016-Jun-10 20:33N 26°21' W 080°05'0 0.0
2016-Jun-10 19:33N 26°21' W 080°05'0 0.0
2016-Jun-10 18:24N 26°21' W 080°05'0 0.0
2016-Jun-10 17:33N 26°21' W 080°05'0 0.0
2016-Jun-10 16:24N 26°21' W 080°05'0 0.0
2016-Jun-10 15:27N 26°21' W 080°05'0 0.0
2016-Jun-10 14:27N 26°21' W 080°05'0 0.0
2016-Jun-10 13:27N 26°21' W 080°05'0 0.0
2016-Jun-10 12:30N 26°21' W 080°05'0 0.0
2016-Jun-10 11:30N 26°21' W 080°05'0 0.0
2016-Jun-10 10:30N 26°21' W 080°05'0 0.0
2016-Jun-10 09:33N 26°21' W 080°05'0 0.0
2016-Jun-10 08:33N 26°21' W 080°05'0 0.0
2016-Jun-10 07:33N 26°21' W 080°05'0 0.0
2016-Jun-10 06:33N 26°21' W 080°05'0 0.0
2016-Jun-10 05:33N 26°21' W 080°05'0 0.0
2016-Jun-10 04:33N 26°21' W 080°05'0 0.0
2016-Jun-10 03:18N 26°21' W 080°05'0 0.0
2016-Jun-10 02:24N 26°21' W 080°05'0 0.0
2016-Jun-10 01:27N 26°21' W 080°05'0 0.0
2016-Jun-10 00:27N 26°21' W 080°05'0 0.0
2016-Jun-09 23:27N 26°21' W 080°05'0 0.0
2016-Jun-09 22:24N 26°21' W 080°05'0 0.0
2016-Jun-09 21:30N 26°21' W 080°05'0 0.0
2016-Jun-09 20:30N 26°21' W 080°05'3 3.6
2016-Jun-09 19:33N 26°17' W 080°05'5 4.9
2016-Jun-09 18:34N 26°22' W 080°03'  
2016-Jun-06 15:23N 26°26' W 079°47'1413.3
2016-Jun-06 14:22N 26°14' W 079°39'  
2016-Jun-03 23:13N 25°46' W 080°11'0 0.0
2016-Jun-03 22:31N 25°46' W 080°11'0 0.0
2016-Jun-03 21:31N 25°46' W 080°11'  
Track history (hours):
 
Tides and Currents Weather Stations Pressure Air Temp Water Temp Dewpoint Dewpoint Depression Visibility Wind Speed Wind Dir Waves Ship Positions

M/y Paradigm

Last reported at 2016-Jun-11 16:32 UTC. Time now 2016-Jun-25 01:49 UTC.
Position N 26°03' W 080°04'.
Warning: this ship's position is 13 days out of date.

Length 35 m.

Type: Pleasure craft. MMSI: 538070694.

Date/timePositionNaut miles runAvg speedWind from/ knotsBaromVisibWave heightAir tempDewpointWater temp
2016-Jun-11 16:32N 26°03' W 080°04'10 9.6
2016-Jun-11 15:31N 26°12' W 080°04'7 6.6
2016-Jun-11 14:30N 26°19' W 080°05'1 1.5
2016-Jun-11 13:33N 26°21' W 080°05'0 0.0
2016-Jun-11 12:33N 26°21' W 080°05'0 0.0
2016-Jun-11 11:33N 26°21' W 080°05'0 0.0
2016-Jun-11 10:33N 26°21' W 080°05'0 0.0
2016-Jun-11 09:33N 26°21' W 080°05'0 0.0
2016-Jun-11 08:33N 26°21' W 080°05'0 0.0
2016-Jun-11 07:33N 26°21' W 080°05'0 0.0
2016-Jun-11 06:24N 26°21' W 080°05'0 0.0
2016-Jun-11 05:27N 26°21' W 080°05'0 0.0
2016-Jun-11 04:27N 26°21' W 080°05'0 0.0
2016-Jun-11 03:27N 26°21' W 080°05'0 0.0
2016-Jun-11 02:30N 26°21' W 080°05'0 0.0
2016-Jun-11 01:30N 26°21' W 080°05'0 0.0
2016-Jun-11 00:30N 26°21' W 080°05'0 0.0
2016-Jun-10 23:33N 26°21' W 080°05'0 0.0
2016-Jun-10 22:33N 26°21' W 080°05'0 0.0
2016-Jun-10 21:33N 26°21' W 080°05'0 0.0
2016-Jun-10 20:33N 26°21' W 080°05'0 0.0
2016-Jun-10 19:33N 26°21' W 080°05'0 0.0
2016-Jun-10 18:24N 26°21' W 080°05'0 0.0
2016-Jun-10 17:33N 26°21' W 080°05'0 0.0
2016-Jun-10 16:24N 26°21' W 080°05'0 0.0
2016-Jun-10 15:27N 26°21' W 080°05'0 0.0
2016-Jun-10 14:27N 26°21' W 080°05'0 0.0
2016-Jun-10 13:27N 26°21' W 080°05'0 0.0
2016-Jun-10 12:30N 26°21' W 080°05'0 0.0
2016-Jun-10 11:30N 26°21' W 080°05'0 0.0
2016-Jun-10 10:30N 26°21' W 080°05'0 0.0
2016-Jun-10 09:33N 26°21' W 080°05'0 0.0
2016-Jun-10 08:33N 26°21' W 080°05'0 0.0
2016-Jun-10 07:33N 26°21' W 080°05'0 0.0
2016-Jun-10 06:33N 26°21' W 080°05'0 0.0
2016-Jun-10 05:33N 26°21' W 080°05'0 0.0
2016-Jun-10 04:33N 26°21' W 080°05'0 0.0
2016-Jun-10 03:18N 26°21' W 080°05'0 0.0
2016-Jun-10 02:24N 26°21' W 080°05'0 0.0
2016-Jun-10 01:27N 26°21' W 080°05'0 0.0
2016-Jun-10 00:27N 26°21' W 080°05'0 0.0
2016-Jun-09 23:27N 26°21' W 080°05'0 0.0
2016-Jun-09 22:24N 26°21' W 080°05'0 0.0
2016-Jun-09 21:30N 26°21' W 080°05'0 0.0
2016-Jun-09 20:30N 26°21' W 080°05'3 3.6
2016-Jun-09 19:33N 26°17' W 080°05'5 4.9
2016-Jun-09 18:34N 26°22' W 080°03'  
2016-Jun-06 15:23N 26°26' W 079°47'1413.3
2016-Jun-06 14:22N 26°14' W 079°39'  
2016-Jun-03 23:13N 25°46' W 080°11'0 0.0
2016-Jun-03 22:31N 25°46' W 080°11'0 0.0
2016-Jun-03 21:31N 25°46' W 080°11'  

Dump ship's entire track history